createdAt,value
2019-03-02T00:01:02.239Z,98652.27
2019-03-02T00:03:31.706Z,98648.48
2019-03-02T00:06:01.007Z,98644.66
2019-03-02T00:08:30.135Z,98652.09
2019-03-02T00:10:58.115Z,98653.52
2019-03-02T00:13:26.787Z,98648.57
2019-03-02T00:15:55.293Z,98648.23
2019-03-02T00:18:25.856Z,98651.31
2019-03-02T00:20:55.537Z,98648.96
2019-03-02T00:23:25.417Z,98650.24
2019-03-02T00:25:53.992Z,98654.20
2019-03-02T00:28:22.124Z,98655.67
2019-03-02T00:30:50.069Z,98654.95
2019-03-02T00:33:19.776Z,98658.80
2019-03-02T00:35:47.955Z,98655.44
2019-03-02T00:38:16.410Z,98657.25
2019-03-02T00:40:44.576Z,98652.15
2019-03-02T00:43:13.500Z,98649.97
2019-03-02T00:45:41.672Z,98648.89
2019-03-02T00:48:11.098Z,98650.42
2019-03-02T00:50:39.849Z,98651.95
2019-03-02T00:53:07.816Z,98656.93
2019-03-02T00:55:36.086Z,98658.66
2019-03-02T00:58:04.123Z,98654.51
2019-03-02T01:00:32.130Z,98660.25
2019-03-02T01:03:00.104Z,98658.63
2019-03-02T01:05:28.117Z,98662.09
2019-03-02T01:07:59.827Z,98659.98
2019-03-02T01:10:26.578Z,98657.73
2019-03-02T01:12:54.578Z,98662.78
2019-03-02T01:15:22.569Z,98656.03
2019-03-02T01:17:50.658Z,98656.31
2019-03-02T01:20:19.751Z,98653.78
2019-03-02T01:22:48.366Z,98653.09
2019-03-02T01:25:17.638Z,98645.92
2019-03-02T01:27:46.461Z,98646.50
2019-03-02T01:30:16.609Z,98644.48
2019-03-02T01:32:44.626Z,98645.67
2019-03-02T01:35:12.731Z,98642.09
2019-03-02T01:37:43.953Z,98639.74
2019-03-02T01:40:14.537Z,98643.53
2019-03-02T01:42:42.870Z,98640.82
2019-03-02T01:45:15.656Z,98636.36
2019-03-02T01:47:44.033Z,98634.93
2019-03-02T01:50:14.318Z,98629.77
2019-03-02T01:52:42.327Z,98630.61
2019-03-02T01:55:12.327Z,98637.36
2019-03-02T01:57:40.482Z,98630.64
2019-03-02T02:00:21.603Z,98635.52
2019-03-02T02:02:50.178Z,98638.44
2019-03-02T02:05:18.128Z,98643.45
2019-03-02T02:07:46.285Z,98638.54
2019-03-02T02:10:14.717Z,98632.75
2019-03-02T02:12:43.622Z,98630.13
2019-03-02T02:15:15.230Z,98634.80
2019-03-02T02:17:43.204Z,98632.92
2019-03-02T02:20:14.636Z,98639.33
2019-03-02T02:22:42.034Z,98632.86
2019-03-02T02:25:12.006Z,98628.52
2019-03-02T02:27:39.993Z,98636.00
2019-03-02T02:30:18.682Z,98635.42
2019-03-02T02:32:48.055Z,98622.84
2019-03-02T02:35:17.288Z,98619.14
2019-03-02T02:37:45.254Z,98620.90
2019-03-02T02:40:13.869Z,98622.73
2019-03-02T02:42:43.333Z,98607.41
2019-03-02T02:45:15.238Z,98609.55
2019-03-02T02:47:50.330Z,98599.05
2019-03-02T02:50:15.640Z,98609.19
2019-03-02T02:52:43.724Z,98601.96
2019-03-02T02:55:11.687Z,98595.69
2019-03-02T02:57:39.926Z,98595.39
2019-03-02T03:00:20.937Z,98592.58
2019-03-02T03:02:49.198Z,98586.94
2019-03-02T03:05:17.663Z,98593.83
2019-03-02T03:07:51.789Z,98592.27
2019-03-02T03:10:30.182Z,98591.72
2019-03-02T03:13:01.871Z,98587.18
2019-03-02T03:15:38.948Z,98586.00
2019-03-02T03:18:12.291Z,98589.77
2019-03-02T03:20:37.034Z,98584.72
2019-03-02T03:23:05.031Z,98579.05
2019-03-02T03:25:33.038Z,98582.09
2019-03-02T03:28:01.200Z,98581.57
2019-03-02T03:30:35.308Z,98582.81
2019-03-02T03:33:00.254Z,98583.86
2019-03-02T03:35:29.641Z,98583.75
2019-03-02T03:37:57.897Z,98583.79
2019-03-02T03:40:27.005Z,98586.17
2019-03-02T03:43:02.192Z,98586.23
2019-03-02T03:45:27.991Z,98586.48
2019-03-02T03:47:55.718Z,98591.61
2019-03-02T03:50:23.891Z,98596.73
2019-03-02T03:52:52.073Z,98596.42
2019-03-02T03:55:25.242Z,98585.45
2019-03-02T03:57:55.596Z,98586.38
2019-03-02T04:00:21.194Z,98583.13
2019-03-02T04:02:49.232Z,98591.44
2019-03-02T04:05:17.236Z,98585.61
2019-03-02T04:07:49.739Z,98594.07
2019-03-02T04:10:15.223Z,98592.85
2019-03-02T04:12:43.269Z,98599.05
2019-03-02T04:15:12.538Z,98597.32
2019-03-02T04:17:40.896Z,98593.97
2019-03-02T04:20:15.248Z,98592.06
2019-03-02T04:22:44.697Z,98594.70
2019-03-02T04:25:17.869Z,98597.98
2019-03-02T04:27:43.229Z,98597.33
2019-03-02T04:30:11.211Z,98598.05
2019-03-02T04:32:39.619Z,98595.94
2019-03-02T04:35:08.508Z,98592.86
2019-03-02T04:37:36.554Z,98594.59
2019-03-02T04:40:05.136Z,98597.67
2019-03-02T04:42:33.574Z,98597.60
2019-03-02T04:45:04.804Z,98593.63
2019-03-02T04:47:32.706Z,98592.58
2019-03-02T04:50:00.767Z,98593.30
2019-03-02T04:52:28.821Z,98601.75
2019-03-02T04:54:56.844Z,98600.55
2019-03-02T04:57:24.872Z,98600.09
2019-03-02T04:59:56.674Z,98608.13
2019-03-02T05:02:24.027Z,98602.94
2019-03-02T05:04:52.093Z,98606.81
2019-03-02T05:07:20.377Z,98597.78
2019-03-02T05:09:51.718Z,98594.00
2019-03-02T05:12:18.383Z,98596.11
2019-03-02T05:14:46.665Z,98581.98
2019-03-02T05:17:15.023Z,98586.41
2019-03-02T05:19:43.272Z,98586.62
2019-03-02T05:22:11.342Z,98587.42
2019-03-02T05:24:40.491Z,98582.30
2019-03-02T05:27:09.418Z,98580.21
2019-03-02T05:29:37.396Z,98581.14
2019-03-02T05:32:05.513Z,98576.50
2019-03-02T05:34:36.731Z,98585.07
2019-03-02T05:37:03.917Z,98575.27
2019-03-02T05:39:32.008Z,98573.36
2019-03-02T05:42:00.014Z,98574.02
2019-03-02T05:44:27.981Z,98574.30
2019-03-02T05:46:57.915Z,98576.06
2019-03-02T05:49:26.443Z,98579.42
2019-03-02T05:51:54.527Z,98579.88
2019-03-02T05:54:22.520Z,98586.97
2019-03-02T05:56:50.921Z,98586.25
2019-03-02T05:59:18.874Z,98591.30
2019-03-02T06:01:47.246Z,98583.55
2019-03-02T06:04:18.822Z,98583.92
2019-03-02T06:06:45.520Z,98584.45
2019-03-02T06:09:14.742Z,98583.30
2019-03-02T06:11:42.911Z,98587.62
2019-03-02T06:14:10.928Z,98587.14
2019-03-02T06:16:39.327Z,98593.55
2019-03-02T06:19:07.838Z,98591.96
2019-03-02T06:21:36.135Z,98592.58
2019-03-02T06:24:05.437Z,98588.04
2019-03-02T06:26:35.452Z,98587.42
2019-03-02T06:29:04.339Z,98582.20
2019-03-02T06:31:32.576Z,98581.64
2019-03-02T06:34:01.997Z,98581.98
2019-03-02T06:36:30.701Z,98581.19
2019-03-02T06:38:58.792Z,98577.41
2019-03-02T06:41:29.856Z,98571.01
2019-03-02T06:43:58.539Z,98568.41
2019-03-02T06:46:27.093Z,98570.97
2019-03-02T06:48:55.310Z,98564.33
2019-03-02T06:51:23.271Z,98565.72
2019-03-02T06:53:51.390Z,98563.60
2019-03-02T06:56:19.435Z,98567.37
2019-03-02T06:58:48.127Z,98564.81
2019-03-02T07:01:16.248Z,98567.06
2019-03-02T07:03:45.883Z,98564.67
2019-03-02T07:06:14.590Z,98567.75
2019-03-02T07:08:42.952Z,98570.14
2019-03-02T07:11:11.062Z,98570.55
2019-03-02T07:13:39.101Z,98569.69
2019-03-02T07:16:07.161Z,98569.83
2019-03-02T07:18:46.052Z,98564.29
2019-03-02T07:21:14.042Z,98567.39
2019-03-02T07:23:42.058Z,98563.25
2019-03-02T07:26:10.048Z,98567.96
2019-03-02T07:28:38.792Z,98561.97
2019-03-02T07:31:09.707Z,98564.20
2019-03-02T07:33:37.734Z,98562.57
2019-03-02T07:36:05.657Z,98565.78
2019-03-02T07:38:33.860Z,98564.45
2019-03-02T07:41:01.811Z,98560.91
2019-03-02T07:43:29.804Z,98563.94
2019-03-02T07:45:57.919Z,98564.00
2019-03-02T07:48:26.343Z,98557.62
2019-03-02T07:50:54.363Z,98551.35
2019-03-02T07:53:24.978Z,98556.41
2019-03-02T07:55:57.405Z,98558.41
2019-03-02T07:58:23.794Z,98559.17
2019-03-02T08:00:54.167Z,98556.59
2019-03-02T08:03:22.143Z,98527.52
2019-03-02T08:05:53.347Z,98553.20
2019-03-02T08:08:21.827Z,98552.74
2019-03-02T08:10:49.724Z,98555.52
2019-03-02T08:13:17.851Z,98553.80
2019-03-02T08:15:46.557Z,98552.97
2019-03-02T08:18:15.016Z,98550.23
2019-03-02T08:20:43.687Z,98549.84
2019-03-02T08:23:11.935Z,98554.08
2019-03-02T08:25:41.035Z,98547.55
2019-03-02T08:28:09.930Z,98545.06
2019-03-02T08:30:38.929Z,98547.36
2019-03-02T08:33:08.245Z,98548.73
2019-03-02T08:35:36.630Z,98537.12
2019-03-02T08:38:05.287Z,98536.94
2019-03-02T08:40:34.190Z,98528.69
2019-03-02T08:43:02.556Z,98528.50
2019-03-02T08:45:30.940Z,98532.42
2019-03-02T08:47:59.911Z,98531.25
2019-03-02T08:50:28.360Z,98529.97
2019-03-02T08:52:56.340Z,98531.70
2019-03-02T08:55:24.330Z,98526.57
2019-03-02T08:57:53.870Z,98529.39
2019-03-02T09:00:22.463Z,98524.44
2019-03-02T09:02:50.612Z,98521.43
2019-03-02T09:05:18.641Z,98525.81
2019-03-02T09:07:47.116Z,98522.36
2019-03-02T09:10:16.055Z,98523.08
2019-03-02T09:12:44.085Z,98517.94
2019-03-02T09:15:15.892Z,98521.75
2019-03-02T09:17:44.633Z,98521.66
2019-03-02T09:20:12.648Z,98524.69
2019-03-02T09:22:40.653Z,98527.74
2019-03-02T09:25:10.970Z,98523.52
2019-03-02T09:27:39.477Z,98523.74
2019-03-02T09:30:15.266Z,98521.60
2019-03-02T09:32:47.035Z,98521.08
2019-03-02T09:35:16.159Z,98526.00
2019-03-02T09:37:46.645Z,98520.26
2019-03-02T09:40:15.805Z,98519.62
2019-03-02T09:42:44.222Z,98517.20
2019-03-02T09:45:13.146Z,98527.09
2019-03-02T09:47:43.835Z,98508.27
2019-03-02T09:50:14.527Z,98521.63
2019-03-02T09:52:43.157Z,98520.63
2019-03-02T09:55:14.831Z,98520.02
2019-03-02T09:57:47.294Z,98517.36
2019-03-02T10:00:19.320Z,98514.98
2019-03-02T10:02:50.049Z,98515.11
2019-03-02T10:05:18.655Z,98516.23
2019-03-02T10:07:46.968Z,98507.26
2019-03-02T10:10:14.985Z,98511.55
2019-03-02T10:12:42.992Z,98517.23
2019-03-02T10:15:19.413Z,98521.55
2019-03-02T10:17:47.833Z,98519.84
2019-03-02T10:20:16.082Z,98520.30
2019-03-02T10:22:44.592Z,98520.38
2019-03-02T10:25:12.672Z,98522.33
2019-03-02T10:27:41.535Z,98520.95
2019-03-02T10:30:16.189Z,98528.38
2019-03-02T10:32:44.232Z,98521.38
2019-03-02T10:35:13.563Z,98520.77
2019-03-02T10:37:44.005Z,98521.34
2019-03-02T10:40:14.885Z,98520.79
2019-03-02T10:42:43.781Z,98520.62
2019-03-02T10:45:14.961Z,98518.23
2019-03-02T10:47:43.680Z,98516.00
2019-03-02T10:50:15.648Z,98516.88
2019-03-02T10:52:45.871Z,98511.28
2019-03-02T10:55:16.435Z,98528.14
2019-03-02T10:57:44.516Z,98519.67
2019-03-02T11:00:18.876Z,98519.75
2019-03-02T11:02:52.035Z,98522.53
2019-03-02T11:05:39.744Z,98512.29
2019-03-02T11:08:17.498Z,98516.81
2019-03-02T11:11:02.453Z,98507.45
2019-03-02T11:13:55.332Z,98511.41
2019-03-02T11:16:29.875Z,98512.20
2019-03-02T11:19:11.541Z,98509.91
2019-03-02T11:21:48.050Z,98509.64
2019-03-02T11:24:39.088Z,98509.42
2019-03-02T11:27:20.568Z,98510.34
2019-03-02T11:30:11.223Z,98504.25
2019-03-02T11:32:59.611Z,98502.83
2019-03-02T11:35:50.382Z,98501.80
2019-03-02T11:38:37.303Z,98497.41
2019-03-02T11:41:22.410Z,98493.37
2019-03-02T11:44:10.348Z,98489.34
2019-03-02T11:47:03.436Z,98489.02
2019-03-02T11:49:49.390Z,98492.39
2019-03-02T11:52:38.565Z,98490.41
2019-03-02T11:55:45.312Z,98486.92
2019-03-02T11:58:29.852Z,98481.28
2019-03-02T12:01:09.292Z,98482.60
2019-03-02T12:03:49.063Z,98476.87
2019-03-02T12:06:55.004Z,98477.84
2019-03-02T12:09:48.422Z,98476.92
2019-03-02T12:12:44.054Z,98471.05
2019-03-02T12:15:31.405Z,98466.17
2019-03-02T12:18:20.214Z,98457.75
2019-03-02T12:21:06.858Z,98467.86
2019-03-02T12:23:48.245Z,98459.63
2019-03-02T12:26:26.691Z,98451.70
2019-03-02T12:29:09.312Z,98458.84
2019-03-02T12:32:13.579Z,98454.56
2019-03-02T12:35:02.510Z,98443.11
2019-03-02T12:37:52.887Z,98453.94
2019-03-02T12:40:43.467Z,98448.64
2019-03-02T12:43:40.633Z,98440.38
2019-03-02T12:46:37.995Z,98457.02
2019-03-02T12:49:16.243Z,98449.97
2019-03-02T12:52:03.040Z,98443.22
2019-03-02T12:54:50.819Z,98441.45
2019-03-02T12:57:37.123Z,98439.45
2019-03-02T13:00:20.134Z,98433.25
2019-03-02T13:03:18.192Z,98433.00
2019-03-02T13:06:20.994Z,98425.71
2019-03-02T13:09:04.733Z,98426.00
2019-03-02T13:12:01.915Z,98424.44
2019-03-02T13:14:53.165Z,98422.99
2019-03-02T13:17:33.151Z,98440.98
2019-03-02T13:20:14.503Z,98411.30
2019-03-02T13:22:51.220Z,98412.92
2019-03-02T13:25:37.959Z,98409.91
2019-03-02T13:28:25.770Z,98408.96
2019-03-02T13:31:03.276Z,98412.01
2019-03-02T13:33:50.452Z,98404.27
2019-03-02T13:36:46.990Z,98402.30
2019-03-02T13:39:41.552Z,98402.59
2019-03-02T13:42:20.202Z,98394.63
2019-03-02T13:45:05.640Z,98393.22
2019-03-02T13:47:54.335Z,98405.07
2019-03-02T13:50:34.666Z,98400.37
2019-03-02T13:53:21.129Z,98404.34
2019-03-02T13:56:10.577Z,98399.05
2019-03-02T13:58:59.516Z,98404.66
2019-03-02T14:01:37.389Z,98395.20
2019-03-02T14:04:28.270Z,98392.69
2019-03-02T14:07:14.211Z,98389.02
2019-03-02T14:10:01.843Z,98384.92
2019-03-02T14:12:54.269Z,98391.19
2019-03-02T14:15:42.405Z,98385.13
2019-03-02T14:18:33.716Z,98384.66
2019-03-02T14:21:34.637Z,98392.08
2019-03-02T14:24:24.227Z,98386.49
2019-03-02T14:27:14.663Z,98384.38
2019-03-02T14:29:57.228Z,98390.42
2019-03-02T14:32:48.381Z,98382.44
2019-03-02T14:35:23.744Z,98381.41
2019-03-02T14:38:29.637Z,98375.31
2019-03-02T14:41:11.325Z,98384.22
2019-03-02T14:44:04.704Z,98380.95
2019-03-02T14:47:04.998Z,98378.22
2019-03-02T14:49:53.335Z,98385.41
2019-03-02T14:52:40.004Z,98386.92
2019-03-02T14:55:36.934Z,98390.33
2019-03-02T14:58:24.585Z,98384.33
2019-03-02T15:01:05.463Z,98386.32
2019-03-02T15:03:53.186Z,98389.59
2019-03-02T15:06:40.598Z,98391.41
2019-03-02T15:09:35.314Z,98381.00
2019-03-02T15:12:12.539Z,98383.25
2019-03-02T15:14:55.641Z,98381.16
2019-03-02T15:17:40.193Z,98383.15
2019-03-02T15:20:15.280Z,98379.63
2019-03-02T15:23:09.256Z,98379.53
2019-03-02T15:25:49.718Z,98377.89
2019-03-02T15:28:37.753Z,98379.31
2019-03-02T15:31:22.116Z,98372.38
2019-03-02T15:34:10.310Z,98379.48
2019-03-02T15:36:56.044Z,98378.27
2019-03-02T15:39:53.482Z,98379.38
2019-03-02T15:42:48.478Z,98381.08
2019-03-02T15:45:35.249Z,98382.12
2019-03-02T15:48:32.153Z,98377.06
2019-03-02T15:51:19.749Z,98379.14
2019-03-02T15:54:03.103Z,98375.13
2019-03-02T15:57:02.504Z,98376.75
2019-03-02T15:59:46.768Z,98378.98
2019-03-02T16:02:23.215Z,98389.45
2019-03-02T16:05:14.532Z,98381.39
2019-03-02T16:07:53.036Z,98379.89
2019-03-02T16:10:33.031Z,98389.02
2019-03-02T16:13:24.182Z,98391.48
2019-03-02T16:16:02.827Z,98381.18
2019-03-02T16:18:54.804Z,98378.36
2019-03-02T16:21:48.670Z,98381.98
2019-03-02T16:24:29.784Z,98375.30
2019-03-02T16:27:17.640Z,98372.23
2019-03-02T16:30:17.559Z,98378.19
2019-03-02T16:33:04.233Z,98367.78
2019-03-02T16:35:42.137Z,98367.16
2019-03-02T16:38:40.939Z,98365.04
2019-03-02T16:41:34.266Z,98367.52
2019-03-02T16:44:22.066Z,98367.98
2019-03-02T16:47:11.322Z,98367.61
2019-03-02T16:49:57.625Z,98370.16
2019-03-02T16:52:47.783Z,98371.36
2019-03-02T16:55:45.273Z,98379.92
2019-03-02T16:58:29.828Z,98376.13
2019-03-02T17:01:29.767Z,98368.17
2019-03-02T17:04:11.242Z,98374.57
2019-03-02T17:06:52.438Z,98377.77
2019-03-02T17:09:43.851Z,98370.81
2019-03-02T17:12:29.859Z,98376.06
2019-03-02T17:15:26.445Z,98379.02
2019-03-02T17:18:14.061Z,98381.72
2019-03-02T17:20:47.264Z,98379.38
2019-03-02T17:23:26.968Z,98383.53
2019-03-02T17:26:09.412Z,98381.73
2019-03-02T17:29:04.242Z,98379.90
2019-03-02T17:31:51.280Z,98382.02
2019-03-02T17:34:41.662Z,98382.31
2019-03-02T17:37:27.415Z,98384.52
2019-03-02T17:40:09.687Z,98386.81
2019-03-02T17:43:12.415Z,98388.56
2019-03-02T17:45:53.912Z,98391.31
2019-03-02T17:48:41.798Z,98398.34
2019-03-02T17:51:16.864Z,98404.72
2019-03-02T17:54:13.479Z,98405.52
2019-03-02T17:57:01.759Z,98412.47
2019-03-02T17:59:55.365Z,98417.98
2019-03-02T18:02:42.075Z,98421.80
2019-03-02T18:05:34.269Z,98429.88
2019-03-02T18:08:08.684Z,98432.70
2019-03-02T18:11:09.950Z,98437.17
2019-03-02T18:13:48.180Z,98441.70
2019-03-02T18:16:28.318Z,98438.30
2019-03-02T18:18:56.482Z,98435.02
2019-03-02T18:21:24.412Z,98438.05
2019-03-02T18:23:55.880Z,98438.67
2019-03-02T18:26:24.054Z,98431.92
2019-03-02T18:28:54.349Z,98434.21
2019-03-02T18:31:22.665Z,98429.73
2019-03-02T18:33:56.154Z,98441.56
2019-03-02T18:36:24.204Z,98453.38
2019-03-02T18:38:52.364Z,98465.12
2019-03-02T18:41:20.378Z,98469.23
2019-03-02T18:43:48.887Z,98467.48
2019-03-02T18:46:17.997Z,98473.45
2019-03-02T18:49:21.127Z,98481.17
2019-03-02T18:52:21.199Z,98478.60
2019-03-02T18:54:49.274Z,98486.16
2019-03-02T18:57:17.746Z,98492.49
2019-03-02T18:59:47.443Z,98495.02
2019-03-02T19:02:15.844Z,98495.98
2019-03-02T19:04:45.642Z,98494.48
2019-03-02T19:07:14.030Z,98493.05
2019-03-02T19:09:42.104Z,98497.31
2019-03-02T19:12:10.306Z,98499.59
2019-03-02T19:14:38.495Z,98500.46
2019-03-02T19:17:06.880Z,98503.86
2019-03-02T19:19:35.426Z,98512.70
2019-03-02T19:22:03.971Z,98513.73
2019-03-02T19:24:32.267Z,98509.25
2019-03-02T19:27:00.418Z,98513.04
2019-03-02T19:29:28.561Z,98512.91
2019-03-02T19:31:57.095Z,98515.88
2019-03-02T19:34:25.307Z,98512.36
2019-03-02T19:36:54.073Z,98513.48
2019-03-02T19:39:23.765Z,98512.77
2019-03-02T19:41:52.023Z,98502.58
2019-03-02T19:44:20.291Z,98515.41
2019-03-02T19:46:48.341Z,98508.52
2019-03-02T19:49:16.852Z,98507.78
2019-03-02T19:51:45.162Z,98509.44
2019-03-02T19:54:13.591Z,98504.01
2019-03-02T19:56:42.210Z,98510.89
2019-03-02T19:59:10.683Z,98510.06
2019-03-02T20:01:41.877Z,98510.20
2019-03-02T20:04:11.232Z,98513.23
2019-03-02T20:06:39.403Z,98502.33
2019-03-02T20:09:07.672Z,98503.95
2019-03-02T20:11:37.791Z,98503.66
2019-03-02T20:14:05.909Z,98504.48
2019-03-02T20:16:34.211Z,98499.01
2019-03-02T20:19:02.468Z,98502.92
2019-03-02T20:21:30.644Z,98498.30
2019-03-02T20:23:58.931Z,98496.50
2019-03-02T20:26:27.140Z,98499.64
2019-03-02T20:28:55.375Z,98497.61
2019-03-02T20:31:23.723Z,98500.09
2019-03-02T20:33:53.347Z,98503.18
2019-03-02T20:36:21.577Z,98506.33
2019-03-02T20:38:49.981Z,98509.09
2019-03-02T20:41:18.273Z,98507.63
2019-03-02T20:43:49.723Z,98511.67
2019-03-02T20:46:18.535Z,98515.66
2019-03-02T20:48:47.216Z,98514.81
2019-03-02T20:51:15.597Z,98519.45
2019-03-02T20:53:43.713Z,98522.19
2019-03-02T20:56:11.861Z,98519.42
2019-03-02T20:58:40.049Z,98524.82
2019-03-02T21:01:08.515Z,98527.50
2019-03-02T21:03:36.611Z,98525.17
2019-03-02T21:06:04.767Z,98530.33
2019-03-02T21:08:32.941Z,98528.69
2019-03-02T21:11:01.279Z,98526.12
2019-03-02T21:13:42.311Z,98526.03
2019-03-02T21:16:19.234Z,98499.55
2019-03-02T21:18:51.847Z,98524.70
2019-03-02T21:21:30.284Z,98530.37
2019-03-02T21:23:59.287Z,98529.57
2019-03-02T21:26:27.606Z,98524.88
2019-03-02T21:29:00.299Z,98524.23
2019-03-02T21:31:29.036Z,98519.55
2019-03-02T21:33:56.991Z,98528.52
2019-03-02T21:36:29.466Z,98525.27
2019-03-02T21:38:57.950Z,98527.30
2019-03-02T21:41:27.438Z,98528.52
2019-03-02T21:43:56.088Z,98534.64
2019-03-02T21:46:24.472Z,98540.23
2019-03-02T21:48:53.530Z,98540.08
2019-03-02T21:51:23.431Z,98536.83
2019-03-02T21:53:51.553Z,98538.75
2019-03-02T21:56:19.556Z,98536.02
2019-03-02T21:58:48.040Z,98539.70
2019-03-02T22:01:16.103Z,98529.32
2019-03-02T22:03:43.992Z,98532.19
2019-03-02T22:06:12.611Z,98542.45
2019-03-02T22:08:40.916Z,98540.69
2019-03-02T22:11:09.832Z,98546.38
2019-03-02T22:13:38.933Z,98551.53
2019-03-02T22:16:10.170Z,98558.33
2019-03-02T22:18:38.207Z,98557.12
2019-03-02T22:21:07.197Z,98562.26
2019-03-02T22:23:36.060Z,98565.28
2019-03-02T22:26:04.162Z,98560.45
2019-03-02T22:28:32.520Z,98558.52
2019-03-02T22:31:00.693Z,98554.81
2019-03-02T22:33:29.682Z,98560.89
2019-03-02T22:35:57.937Z,98555.76
2019-03-02T22:38:26.142Z,98556.01
2019-03-02T22:40:55.529Z,98561.80
2019-03-02T22:43:25.345Z,98563.02
2019-03-02T22:45:54.101Z,98555.14
2019-03-02T22:48:22.233Z,98552.50
2019-03-02T22:50:50.346Z,98556.88
2019-03-02T22:53:18.657Z,98544.42
2019-03-02T22:55:46.694Z,98543.70
2019-03-02T22:58:14.792Z,98543.51
2019-03-02T23:01:30.327Z,98549.48
2019-03-02T23:04:00.308Z,98544.61
2019-03-02T23:06:28.535Z,98543.59
2019-03-02T23:08:57.755Z,98538.37
2019-03-02T23:11:26.081Z,98540.84
2019-03-02T23:13:54.351Z,98548.65
2019-03-02T23:16:22.481Z,98546.61
2019-03-02T23:18:52.397Z,98541.12
2019-03-02T23:21:20.702Z,98548.25
2019-03-02T23:23:49.312Z,98545.58
2019-03-02T23:26:17.584Z,98541.20
2019-03-02T23:28:45.793Z,98540.94
2019-03-02T23:31:15.074Z,98545.77
2019-03-02T23:33:43.364Z,98546.21
2019-03-02T23:36:11.797Z,98544.59
2019-03-02T23:38:40.015Z,98548.78
2019-03-02T23:41:07.969Z,98542.27
2019-03-02T23:43:37.421Z,98542.36
2019-03-02T23:46:05.976Z,98539.00
2019-03-02T23:48:34.126Z,98539.70
2019-03-02T23:51:02.355Z,98538.80
2019-03-02T23:53:30.546Z,98534.11
2019-03-02T23:55:58.787Z,98537.86
2019-03-02T23:58:26.982Z,98532.20
